sensor_id;sensor_type;location;lat;lon;timestamp;pressure;altitude;pressure_sealevel;temperature;humidity
63881;BME280;50046;46.672;11.152;2022-11-15T00:00:08;98620.44;;;5.21;91.56
63881;BME280;50046;46.672;11.152;2022-11-15T00:00:19;98607.06;;;5.21;91.21
63881;BME280;50046;46.672;11.152;2022-11-15T00:00:29;98616.75;;;5.22;91.39
63881;BME280;50046;46.672;11.152;2022-11-15T00:00:42;98615.72;;;5.23;91.19
63881;BME280;50046;46.672;11.152;2022-11-15T00:00:55;98617.78;;;5.21;91.09
63881;BME280;50046;46.672;11.152;2022-11-15T00:01:11;98623.13;;;5.21;91.07
63881;BME280;50046;46.672;11.152;2022-11-15T00:01:24;98614.09;;;5.22;91.11
63881;BME280;50046;46.672;11.152;2022-11-15T00:01:35;98617.56;;;5.22;91.45
63881;BME280;50046;46.672;11.152;2022-11-15T00:01:50;98613.22;;;5.21;91.10
63881;BME280;50046;46.672;11.152;2022-11-15T00:02:00;98618.59;;;5.21;90.90
63881;BME280;50046;46.672;11.152;2022-11-15T00:02:14;98611.81;;;5.19;90.87
63881;BME280;50046;46.672;11.152;2022-11-15T00:02:24;98616.97;;;5.20;nan
63881;BME280;50046;46.672;11.152;2022-11-15T00:02:35;98614.47;;;5.19;90.84
63881;BME280;50046;46.672;11.152;2022-11-15T00:02:48;98615.31;;;5.19;91.04
63881;BME280;50046;46.672;11.152;2022-11-15T00:02:59;98610.19;;;5.18;90.76
63881;BME280;50046;46.672;11.152;2022-11-15T00:03:13;98614.91;;;5.22;90.77
63881;BME280;50046;46.672;11.152;2022-11-15T00:03:26;98613.84;;;5.23;91.12
63881;BME280;50046;46.672;11.152;2022-11-15T00:03:36;98615.09;;;5.21;90.91
63881;BME280;50046;46.672;11.152;2022-11-15T00:03:50;98609.53;;;5.22;90.70
63881;BME280;50046;46.672;11.152;2022-11-15T00:04:01;98614.91;;;5.22;90.61
63881;BME280;50046;46.672;11.152;2022-11-15T00:04:11;98613.03;;;5.23;90.78
63881;BME280;50046;46.672;11.152;2022-11-15T00:04:22;98612.19;;;5.29;90.66
63881;BME280;50046;46.672;11.152;2022-11-15T00:04:33;98615.28;;;5.26;90.53
63881;BME280;50046;46.672;11.152;2022-11-15T00:04:45;98616.31;;;5.25;90.36
63881;BME280;50046;46.672;11.152;2022-11-15T00:04:59;98614.47;;;5.26;90.36
63881;BME280;50046;46.672;11.152;2022-11-15T00:05:14;98611.16;;;5.23;90.27
63881;BME280;50046;46.672;11.152;2022-11-15T00:05:27;98616.97;;;5.20;90.09
63881;BME280;50046;46.672;11.152;2022-11-15T00:05:37;98610.38;;;5.16;90.26
63881;BME280;50046;46.672;11.152;2022-11-15T00:05:48;98613.06;;;5.16;90.27
63881;BME280;50046;46.672;11.152;2022-11-15T00:06:05;98612.03;;;5.17;90.04
63881;BME280;50046;46.672;11.152;2022-11-15T00:06:15;98606.69;;;5.17;90.20
63881;BME280;50046;46.672;11.152;2022-11-15T00:06:26;98613.66;;;5.18;90.28
63881;BME280;50046;46.672;11.152;2022-11-15T00:06:36;98610.19;;;5.18;90.19
63881;BME280;50046;46.672;11.152;2022-11-15T00:06:47;98612.84;;;5.18;89.95
63881;BME280;50046;46.672;11.152;2022-11-15T00:06:57;98605.88;;;5.17;90.21
63881;BME280;50046;46.672;11.152;2022-11-15T00:07:08;98611.81;;;5.19;89.90
63881;BME280;50046;46.672;11.152;2022-11-15T00:07:18;98615.09;;;5.21;90.25
63881;BME280;50046;46.672;11.152;2022-11-15T00:07:29;98607.06;;;5.21;90.08
63881;BME280;50046;46.672;11.152;2022-11-15T00:07:39;98616.16;;;5.20;90.26
63881;BME280;50046;46.672;11.152;2022-11-15T00:07:50;98606.44;;;5.19;90.49
63881;BME280;50046;46.672;11.152;2022-11-15T00:08:00;98605.88;;;5.17;90.23
63881;BME280;50046;46.672;11.152;2022-11-15T00:08:10;98605.88;;;5.17;90.43
63881;BME280;50046;46.672;11.152;2022-11-15T00:08:21;98613.28;;;5.15;89.82
63881;BME280;50046;46.672;11.152;2022-11-15T00:08:34;98612.41;;;5.21;90.43
63881;BME280;50046;46.672;11.152;2022-11-15T00:08:45;98605.44;;;5.20;90.16
63881;BME280;50046;46.672;11.152;2022-11-15T00:08:59;98611.41;;;5.22;90.26
63881;BME280;50046;46.672;11.152;2022-11-15T00:09:13;98605.19;;;5.21;90.07
63881;BME280;50046;46.672;11.152;2022-11-15T00:09:24;98613.22;;;5.21;90.28
63881;BME280;50046;46.672;11.152;2022-11-15T00:09:36;98604.19;;;5.22;90.06
63881;BME280;50046;46.672;11.152;2022-11-15T00:09:51;98610.16;;;5.25;90.07
63881;BME280;50046;46.672;11.152;2022-11-15T00:10:05;98606.84;;;5.22;90.06
63881;BME280;50046;46.672;11.152;2022-11-15T00:10:18;98615.72;;;5.23;89.95
63881;BME280;50046;46.672;11.152;2022-11-15T00:10:29;98600.69;;;5.22;90.37
63881;BME280;50046;46.672;11.152;2022-11-15T00:10:39;98607.69;;;5.23;89.95
63881;BME280;50046;46.672;11.152;2022-11-15T00:10:59;98607.88;;;5.21;89.94
63881;BME280;50046;46.672;11.152;2022-11-15T00:11:13;98609.97;;;5.19;90.26
63881;BME280;50046;46.672;11.152;2022-11-15T00:11:27;98605.63;;;5.18;89.88
63881;BME280;50046;46.672;11.152;2022-11-15T00:11:38;98610.38;;;5.16;89.94
63881;BME280;50046;46.672;11.152;2022-11-15T00:11:49;98608.53;;;5.17;90.29
63881;BME280;50046;46.672;11.152;2022-11-15T00:12:03;98608.75;;;5.15;90.42
63881;BME280;50046;46.672;11.152;2022-11-15T00:12:14;98614.91;;;5.16;90.47
63881;BME280;50046;46.672;11.152;2022-11-15T00:12:24;98607.13;;;5.14;90.53
63881;BME280;50046;46.672;11.152;2022-11-15T00:12:39;98610.81;;;5.13;90.11
63881;BME280;50046;46.672;11.152;2022-11-15T00:12:49;98602.78;;;5.13;90.49
63881;BME280;50046;46.672;11.152;2022-11-15T00:13:04;98603.00;;;5.12;90.48
63881;BME280;50046;46.672;11.152;2022-11-15T00:13:15;98604.63;;;5.13;90.70
63881;BME280;50046;46.672;11.152;2022-11-15T00:13:26;98610.19;;;5.11;90.49
63881;BME280;50046;46.672;11.152;2022-11-15T00:13:37;98609.38;;;5.11;90.79
63881;BME280;50046;46.672;11.152;2022-11-15T00:13:47;98607.13;;;5.14;90.85
63881;BME280;50046;46.672;11.152;2022-11-15T00:13:58;98606.50;;;5.12;90.54
63881;BME280;50046;46.672;11.152;2022-11-15T00:14:08;98601.75;;;5.14;90.77
63881;BME280;50046;46.672;11.152;2022-11-15T00:14:19;98599.47;;;5.18;90.49
63881;BME280;50046;46.672;11.152;2022-11-15T00:14:37;98604.56;;;5.26;90.41
63881;BME280;50046;46.672;11.152;2022-11-15T00:14:48;98601.69;;;5.28;90.06
63881;BME280;50046;46.672;11.152;2022-11-15T00:14:58;98606.66;;;5.24;89.65
63881;BME280;50046;46.672;11.152;2022-11-15T00:15:09;98601.06;;;5.26;89.97
63881;BME280;50046;46.672;11.152;2022-11-15T00:15:20;98602.94;;;5.25;89.80
63881;BME280;50046;46.672;11.152;2022-11-15T00:15:34;98600.06;;;5.27;89.94
63881;BME280;50046;46.672;11.152;2022-11-15T00:15:47;98602.50;;;5.28;90.05
63881;BME280;50046;46.672;11.152;2022-11-15T00:15:59;98604.34;;;5.28;89.86
63881;BME280;50046;46.672;11.152;2022-11-15T00:16:13;98600.88;;;5.27;89.97
63881;BME280;50046;46.672;11.152;2022-11-15T00:16:24;98593.03;;;5.26;89.43
63881;BME280;50046;46.672;11.152;2022-11-15T00:16:37;98602.72;;;5.27;89.61
63881;BME280;50046;46.672;11.152;2022-11-15T00:16:48;98595.72;;;5.26;89.67
63881;BME280;50046;46.672;11.152;2022-11-15T00:17:01;98599.44;;;5.25;89.74
63881;BME280;50046;46.672;11.152;2022-11-15T00:17:11;98599.66;;;5.23;89.86
63881;BME280;50046;46.672;11.152;2022-11-15T00:17:27;98601.72;;;5.21;89.47
63881;BME280;50046;46.672;11.152;2022-11-15T00:17:40;98594.28;;;5.23;89.67
63881;BME280;50046;46.672;11.152;2022-11-15T00:17:51;98601.50;;;5.22;89.94
63881;BME280;50046;46.672;11.152;2022-11-15T00:18:03;98598.00;;;5.22;90.08
63881;BME280;50046;46.672;11.152;2022-11-15T00:18:14;98594.50;;;5.21;89.80
63881;BME280;50046;46.672;11.152;2022-11-15T00:18:25;98598.81;;;5.22;89.80
63881;BME280;50046;46.672;11.152;2022-11-15T00:18:37;98606.03;;;5.22;89.99
63881;BME280;50046;46.672;11.152;2022-11-15T00:18:51;98595.34;;;5.22;89.70
63881;BME280;50046;46.672;11.152;2022-11-15T00:19:02;98606.44;;;5.19;89.94
63881;BME280;50046;46.672;11.152;2022-11-15T00:19:12;98600.28;;;5.18;89.77
63881;BME280;50046;46.672;11.152;2022-11-15T00:19:31;98595.75;;;5.19;89.55
63881;BME280;50046;46.672;11.152;2022-11-15T00:19:47;98603.78;;;5.19;89.80
63881;BME280;50046;46.672;11.152;2022-11-15T00:20:02;98603.78;;;5.19;89.46
63881;BME280;50046;46.672;11.152;2022-11-15T00:20:16;98594.91;;;5.25;89.11
63881;BME280;50046;46.672;11.152;2022-11-15T00:20:30;98600.06;;;5.20;89.25
63881;BME280;50046;46.672;11.152;2022-11-15T00:20:40;98596.59;;;5.19;88.79
63881;BME280;50046;46.672;11.152;2022-11-15T00:20:51;98598.22;;;5.20;88.79
63881;BME280;50046;46.672;11.152;2022-11-15T00:21:07;98605.44;;;5.20;88.68
63881;BME280;50046;46.672;11.152;2022-11-15T00:21:21;98600.25;;;5.25;88.95
63881;BME280;50046;46.672;11.152;2022-11-15T00:21:31;98606.44;;;5.26;88.72
63881;BME280;50046;46.672;11.152;2022-11-15T00:21:45;98602.53;;;5.21;88.65
63881;BME280;50046;46.672;11.152;2022-11-15T00:21:58;98601.72;;;5.21;88.35
63881;BME280;50046;46.672;11.152;2022-11-15T00:22:09;98601.06;;;5.26;88.58
63881;BME280;50046;46.672;11.152;2022-11-15T00:22:19;98602.31;;;5.23;88.56
63881;BME280;50046;46.672;11.152;2022-11-15T00:22:33;98599.03;;;5.21;88.16
63881;BME280;50046;46.672;11.152;2022-11-15T00:22:46;98593.91;;;5.19;88.24
63881;BME280;50046;46.672;11.152;2022-11-15T00:22:59;98604.00;;;5.17;88.45
63881;BME280;50046;46.672;11.152;2022-11-15T00:23:10;98608.53;;;5.17;88.38
63881;BME280;50046;46.672;11.152;2022-11-15T00:23:23;98594.75;;;5.13;88.19
63881;BME280;50046;46.672;11.152;2022-11-15T00:23:34;98603.00;;;5.12;88.17
63881;BME280;50046;46.672;11.152;2022-11-15T00:23:45;98599.91;;;5.15;88.52
63881;BME280;50046;46.672;11.152;2022-11-15T00:24:00;98610.38;;;5.16;88.66
63881;BME280;50046;46.672;11.152;2022-11-15T00:24:10;98610.59;;;5.15;88.56
63881;BME280;50046;46.672;11.152;2022-11-15T00:24:21;98597.44;;;5.13;88.57
63881;BME280;50046;46.672;11.152;2022-11-15T00:24:32;98606.69;;;5.17;88.61
63881;BME280;50046;46.672;11.152;2022-11-15T00:24:42;98603.41;;;5.15;88.47
63881;BME280;50046;46.672;11.152;2022-11-15T00:25:01;98605.69;;;5.12;88.05
63881;BME280;50046;46.672;11.152;2022-11-15T00:25:17;98597.84;;;5.10;88.47
63881;BME280;50046;46.672;11.152;2022-11-15T00:25:31;98597.03;;;5.10;88.22
63881;BME280;50046;46.672;11.152;2022-11-15T00:25:42;98598.06;;;5.09;88.66
63881;BME280;50046;46.672;11.152;2022-11-15T00:26:01;98604.84;;;5.11;88.37
63881;BME280;50046;46.672;11.152;2022-11-15T00:26:14;98596.81;;;5.11;88.45
63881;BME280;50046;46.672;11.152;2022-11-15T00:26:25;98590.63;;;5.11;88.24
63881;BME280;50046;46.672;11.152;2022-11-15T00:26:36;98597.66;;;5.12;88.29
63881;BME280;50046;46.672;11.152;2022-11-15T00:26:46;98604.84;;;5.11;88.19
63881;BME280;50046;46.672;11.152;2022-11-15T00:26:57;98595.19;;;5.10;88.46
63881;BME280;50046;46.672;11.152;2022-11-15T00:27:19;98595.19;;;5.10;88.33
63881;BME280;50046;46.672;11.152;2022-11-15T00:27:29;98599.72;;;5.10;88.41
63881;BME280;50046;46.672;11.152;2022-11-15T00:27:43;98597.84;;;5.10;88.33
63881;BME280;50046;46.672;11.152;2022-11-15T00:28:00;98593.31;;;5.11;88.59
63881;BME280;50046;46.672;11.152;2022-11-15T00:28:11;98595.78;;;5.12;88.64
63881;BME280;50046;46.672;11.152;2022-11-15T00:28:24;98596.59;;;5.13;88.49
63881;BME280;50046;46.672;11.152;2022-11-15T00:28:37;98592.25;;;5.18;88.18
63881;BME280;50046;46.672;11.152;2022-11-15T00:28:48;98593.06;;;5.19;88.28
63881;BME280;50046;46.672;11.152;2022-11-15T00:29:01;98594.13;;;5.18;88.12
63881;BME280;50046;46.672;11.152;2022-11-15T00:29:12;98594.31;;;5.16;88.42
63881;BME280;50046;46.672;11.152;2022-11-15T00:29:22;98594.94;;;5.18;88.17
63881;BME280;50046;46.672;11.152;2022-11-15T00:29:33;98597.84;;;5.17;87.84
63881;BME280;50046;46.672;11.152;2022-11-15T00:29:46;98594.53;;;5.15;87.66
63881;BME280;50046;46.672;11.152;2022-11-15T00:29:57;98588.16;;;5.16;88.10
63881;BME280;50046;46.672;11.152;2022-11-15T00:30:08;98591.44;;;5.18;88.07
63881;BME280;50046;46.672;11.152;2022-11-15T00:30:23;98592.47;;;5.17;87.99
63881;BME280;50046;46.672;11.152;2022-11-15T00:30:34;98594.13;;;5.18;88.03
63881;BME280;50046;46.672;11.152;2022-11-15T00:30:47;98588.97;;;5.16;87.91
63881;BME280;50046;46.672;11.152;2022-11-15T00:31:10;98595.56;;;5.14;87.99
63881;BME280;50046;46.672;11.152;2022-11-15T00:31:29;98588.75;;;5.18;87.87
63881;BME280;50046;46.672;11.152;2022-11-15T00:31:42;98599.47;;;5.18;88.20
63881;BME280;50046;46.672;11.152;2022-11-15T00:31:52;98594.13;;;5.18;88.04
63881;BME280;50046;46.672;11.152;2022-11-15T00:32:03;98590.63;;;5.17;88.03
63881;BME280;50046;46.672;11.152;2022-11-15T00:32:14;98594.13;;;5.18;87.96
63881;BME280;50046;46.672;11.152;2022-11-15T00:32:31;98592.03;;;5.20;88.32
63881;BME280;50046;46.672;11.152;2022-11-15T00:32:42;98596.59;;;5.19;88.05
63881;BME280;50046;46.672;11.152;2022-11-15T00:32:52;98596.59;;;5.19;88.31
63881;BME280;50046;46.672;11.152;2022-11-15T00:33:04;98594.72;;;5.20;87.97
63881;BME280;50046;46.672;11.152;2022-11-15T00:33:15;98592.25;;;5.18;88.30
63881;BME280;50046;46.672;11.152;2022-11-15T00:33:31;98595.75;;;5.19;88.30
63881;BME280;50046;46.672;11.152;2022-11-15T00:33:43;98588.13;;;5.22;88.11
63881;BME280;50046;46.672;11.152;2022-11-15T00:34:02;98595.34;;;5.22;88.47
63881;BME280;50046;46.672;11.152;2022-11-15T00:34:13;98598.22;;;5.20;88.26
63881;BME280;50046;46.672;11.152;2022-11-15T00:34:23;98601.72;;;5.21;88.13
63881;BME280;50046;46.672;11.152;2022-11-15T00:34:34;98588.56;;;5.19;88.64
63881;BME280;50046;46.672;11.152;2022-11-15T00:34:49;98597.16;;;5.21;88.60
63881;BME280;50046;46.672;11.152;2022-11-15T00:35:00;98588.31;;;5.21;88.78
63881;BME280;50046;46.672;11.152;2022-11-15T00:35:11;98591.63;;;5.23;88.81
63881;BME280;50046;46.672;11.152;2022-11-15T00:35:22;98587.31;;;5.22;88.69
63881;BME280;50046;46.672;11.152;2022-11-15T00:35:36;98591.00;;;5.21;88.44
63881;BME280;50046;46.672;11.152;2022-11-15T00:35:46;98591.00;;;5.21;88.76
63881;BME280;50046;46.672;11.152;2022-11-15T00:36:05;98586.91;;;5.18;88.50
63881;BME280;50046;46.672;11.152;2022-11-15T00:36:16;98585.88;;;5.19;88.91
63881;BME280;50046;46.672;11.152;2022-11-15T00:36:26;98587.50;;;5.20;88.71
63881;BME280;50046;46.672;11.152;2022-11-15T00:36:44;98590.19;;;5.20;88.81
63881;BME280;50046;46.672;11.152;2022-11-15T00:36:55;98595.53;;;5.20;89.02
63881;BME280;50046;46.672;11.152;2022-11-15T00:37:06;98589.13;;;5.21;89.32
63881;BME280;50046;46.672;11.152;2022-11-15T00:37:16;98589.97;;;5.22;89.16
63881;BME280;50046;46.672;11.152;2022-11-15T00:37:27;98584.81;;;5.20;89.16
63881;BME280;50046;46.672;11.152;2022-11-15T00:37:40;98588.56;;;5.19;88.81
63881;BME280;50046;46.672;11.152;2022-11-15T00:37:56;98584.44;;;5.17;88.88
63881;BME280;50046;46.672;11.152;2022-11-15T00:38:07;98590.63;;;5.17;88.86
63881;BME280;50046;46.672;11.152;2022-11-15T00:38:20;98594.72;;;5.20;89.02
63881;BME280;50046;46.672;11.152;2022-11-15T00:38:34;98588.31;;;5.21;89.01
63881;BME280;50046;46.672;11.152;2022-11-15T00:38:44;98587.50;;;5.20;88.92
63881;BME280;50046;46.672;11.152;2022-11-15T00:38:55;98592.03;;;5.20;88.79
63881;BME280;50046;46.672;11.152;2022-11-15T00:39:06;98589.56;;;5.18;88.93
63881;BME280;50046;46.672;11.152;2022-11-15T00:39:17;98591.81;;;5.21;88.56
63881;BME280;50046;46.672;11.152;2022-11-15T00:39:30;98593.28;;;5.17;88.54
63881;BME280;50046;46.672;11.152;2022-11-15T00:39:43;98590.22;;;5.14;88.33
63881;BME280;50046;46.672;11.152;2022-11-15T00:39:53;98588.56;;;5.13;88.26
63881;BME280;50046;46.672;11.152;2022-11-15T00:40:08;98594.38;;;5.10;88.12
63881;BME280;50046;46.672;11.152;2022-11-15T00:40:25;98584.69;;;5.09;88.47
63881;BME280;50046;46.672;11.152;2022-11-15T00:40:38;98585.53;;;5.09;88.69
63881;BME280;50046;46.672;11.152;2022-11-15T00:40:51;98591.88;;;5.08;88.63
63881;BME280;50046;46.672;11.152;2022-11-15T00:41:02;98587.78;;;5.06;88.43
63881;BME280;50046;46.672;11.152;2022-11-15T00:41:31;98582.44;;;5.06;88.86
63881;BME280;50046;46.672;11.152;2022-11-15T00:41:42;98589.03;;;5.03;88.47
63881;BME280;50046;46.672;11.152;2022-11-15T00:41:52;98583.91;;;5.01;88.79
63881;BME280;50046;46.672;11.152;2022-11-15T00:42:08;98591.31;;;4.99;89.00
63881;BME280;50046;46.672;11.152;2022-11-15T00:42:19;98589.47;;;5.00;88.88
63881;BME280;50046;46.672;11.152;2022-11-15T00:42:32;98588.66;;;4.99;89.08
63881;BME280;50046;46.672;11.152;2022-11-15T00:42:43;98587.00;;;4.98;89.16
63881;BME280;50046;46.672;11.152;2022-11-15T00:42:54;98591.75;;;4.96;89.09
63881;BME280;50046;46.672;11.152;2022-11-15T00:43:04;98590.09;;;4.95;88.82
63881;BME280;50046;46.672;11.152;2022-11-15T00:43:17;98589.09;;;4.96;89.08
63881;BME280;50046;46.672;11.152;2022-11-15T00:43:28;98583.94;;;4.95;89.41
63881;BME280;50046;46.672;11.152;2022-11-15T00:43:38;98582.06;;;4.95;89.30
63881;BME280;50046;46.672;11.152;2022-11-15T00:43:52;98583.72;;;4.96;89.43
63881;BME280;50046;46.672;11.152;2022-11-15T00:44:07;98579.41;;;4.95;89.46
63881;BME280;50046;46.672;11.152;2022-11-15T00:44:18;98586.81;;;4.93;89.08
63881;BME280;50046;46.672;11.152;2022-11-15T00:44:28;98583.13;;;4.94;89.50
63881;BME280;50046;46.672;11.152;2022-11-15T00:44:39;98586.59;;;4.95;89.22
63881;BME280;50046;46.672;11.152;2022-11-15T00:44:49;98584.75;;;4.95;89.58
63881;BME280;50046;46.672;11.152;2022-11-15T00:45:03;98581.06;;;4.96;89.69
63881;BME280;50046;46.672;11.152;2022-11-15T00:45:14;98582.69;;;4.97;89.33
63881;BME280;50046;46.672;11.152;2022-11-15T00:45:25;98581.06;;;4.96;89.63
63881;BME280;50046;46.672;11.152;2022-11-15T00:45:38;98587.00;;;4.98;89.37
63881;BME280;50046;46.672;11.152;2022-11-15T00:45:52;98578.38;;;4.96;89.59
63881;BME280;50046;46.672;11.152;2022-11-15T00:46:03;98583.72;;;4.96;89.43
63881;BME280;50046;46.672;11.152;2022-11-15T00:46:16;98583.72;;;4.96;89.56
63881;BME280;50046;46.672;11.152;2022-11-15T00:46:27;98573.59;;;4.98;89.55
63881;BME280;50046;46.672;11.152;2022-11-15T00:46:43;98578.16;;;4.98;89.58
63881;BME280;50046;46.672;11.152;2022-11-15T00:46:53;98581.63;;;4.98;89.37
63881;BME280;50046;46.672;11.152;2022-11-15T00:47:06;98579.19;;;4.97;89.31
63881;BME280;50046;46.672;11.152;2022-11-15T00:47:20;98579.41;;;4.95;89.41
63881;BME280;50046;46.672;11.152;2022-11-15T00:47:30;98579.19;;;4.97;89.65
63881;BME280;50046;46.672;11.152;2022-11-15T00:47:44;98586.41;;;4.96;89.66
63881;BME280;50046;46.672;11.152;2022-11-15T00:47:57;98578.56;;;4.95;89.49
63881;BME280;50046;46.672;11.152;2022-11-15T00:48:10;98583.72;;;4.96;89.47
63881;BME280;50046;46.672;11.152;2022-11-15T00:48:23;98582.31;;;4.94;89.80
63881;BME280;50046;46.672;11.152;2022-11-15T00:48:36;98578.78;;;4.93;89.50
63881;BME280;50046;46.672;11.152;2022-11-15T00:48:50;98583.72;;;4.96;89.67
63881;BME280;50046;46.672;11.152;2022-11-15T00:49:00;98583.72;;;4.96;89.65
63881;BME280;50046;46.672;11.152;2022-11-15T00:49:16;98580.81;;;4.98;90.00
63881;BME280;50046;46.672;11.152;2022-11-15T00:49:27;98571.78;;;4.99;90.05
63881;BME280;50046;46.672;11.152;2022-11-15T00:49:37;98581.63;;;4.98;89.63
63881;BME280;50046;46.672;11.152;2022-11-15T00:49:50;98578.75;;;5.00;89.76
63881;BME280;50046;46.672;11.152;2022-11-15T00:50:07;98573.41;;;5.00;89.98
63881;BME280;50046;46.672;11.152;2022-11-15T00:50:18;98574.44;;;4.99;89.53
63881;BME280;50046;46.672;11.152;2022-11-15T00:50:28;98584.31;;;4.98;89.38
63881;BME280;50046;46.672;11.152;2022-11-15T00:50:41;98577.13;;;4.99;89.58
63881;BME280;50046;46.672;11.152;2022-11-15T00:50:51;98577.34;;;4.97;89.76
63881;BME280;50046;46.672;11.152;2022-11-15T00:51:02;98574.03;;;4.95;89.50
63881;BME280;50046;46.672;11.152;2022-11-15T00:51:13;98574.28;;;4.94;89.43
63881;BME280;50046;46.672;11.152;2022-11-15T00:51:25;98582.31;;;4.94;89.38
63881;BME280;50046;46.672;11.152;2022-11-15T00:51:38;98575.91;;;4.95;89.89
63881;BME280;50046;46.672;11.152;2022-11-15T00:51:49;98581.06;;;4.96;89.84
63881;BME280;50046;46.672;11.152;2022-11-15T00:52:02;98579.41;;;4.95;89.79
63881;BME280;50046;46.672;11.152;2022-11-15T00:52:13;98582.88;;;4.96;90.00
63881;BME280;50046;46.672;11.152;2022-11-15T00:52:28;98574.44;;;4.99;90.15
63881;BME280;50046;46.672;11.152;2022-11-15T00:52:44;98578.16;;;4.98;89.89
63881;BME280;50046;46.672;11.152;2022-11-15T00:52:57;98571.38;;;4.95;89.71
63881;BME280;50046;46.672;11.152;2022-11-15T00:53:07;98573.22;;;4.95;89.66
63881;BME280;50046;46.672;11.152;2022-11-15T00:53:18;98578.78;;;4.93;90.00
63881;BME280;50046;46.672;11.152;2022-11-15T00:53:31;98579.22;;;4.90;89.83
63881;BME280;50046;46.672;11.152;2022-11-15T00:53:41;98579.81;;;4.92;89.55
63881;BME280;50046;46.672;11.152;2022-11-15T00:53:52;98580.03;;;4.91;89.73
63881;BME280;50046;46.672;11.152;2022-11-15T00:54:03;98577.34;;;4.91;89.61
63881;BME280;50046;46.672;11.152;2022-11-15T00:54:13;98576.34;;;4.92;90.05
63881;BME280;50046;46.672;11.152;2022-11-15T00:54:24;98577.97;;;4.93;90.13
63881;BME280;50046;46.672;11.152;2022-11-15T00:54:35;98583.31;;;4.93;89.79
63881;BME280;50046;46.672;11.152;2022-11-15T00:54:48;98579.63;;;4.94;90.00
63881;BME280;50046;46.672;11.152;2022-11-15T00:54:58;98583.31;;;4.93;90.20
63881;BME280;50046;46.672;11.152;2022-11-15T00:55:18;98577.97;;;4.93;90.29
63881;BME280;50046;46.672;11.152;2022-11-15T00:55:31;98582.31;;;4.94;90.15
63881;BME280;50046;46.672;11.152;2022-11-15T00:55:42;98581.47;;;4.93;90.15
63881;BME280;50046;46.672;11.152;2022-11-15T00:55:53;98584.13;;;4.93;89.88
63881;BME280;50046;46.672;11.152;2022-11-15T00:56:06;98578.78;;;4.93;90.07
63881;BME280;50046;46.672;11.152;2022-11-15T00:56:16;98577.97;;;4.93;89.97
63881;BME280;50046;46.672;11.152;2022-11-15T00:56:27;98578.78;;;4.93;90.17
63881;BME280;50046;46.672;11.152;2022-11-15T00:56:40;98579.00;;;4.92;89.85
63881;BME280;50046;46.672;11.152;2022-11-15T00:56:53;98579.63;;;4.94;90.28
63881;BME280;50046;46.672;11.152;2022-11-15T00:57:04;98580.22;;;4.96;90.25
63881;BME280;50046;46.672;11.152;2022-11-15T00:57:15;98579.63;;;4.94;89.94
63881;BME280;50046;46.672;11.152;2022-11-15T00:57:25;98577.16;;;4.92;89.83
63881;BME280;50046;46.672;11.152;2022-11-15T00:57:36;98577.75;;;4.94;90.04
63881;BME280;50046;46.672;11.152;2022-11-15T00:57:47;98576.72;;;4.95;90.23
63881;BME280;50046;46.672;11.152;2022-11-15T00:57:57;98579.81;;;4.92;89.91
63881;BME280;50046;46.672;11.152;2022-11-15T00:58:08;98575.91;;;4.95;90.14
63881;BME280;50046;46.672;11.152;2022-11-15T00:58:19;98583.94;;;4.95;89.90
63881;BME280;50046;46.672;11.152;2022-11-15T00:58:29;98581.25;;;4.95;89.86
63881;BME280;50046;46.672;11.152;2022-11-15T00:58:40;98582.50;;;4.92;90.17
63881;BME280;50046;46.672;11.152;2022-11-15T00:58:56;98582.50;;;4.92;90.12
63881;BME280;50046;46.672;11.152;2022-11-15T00:59:13;98580.88;;;4.91;89.95
63881;BME280;50046;46.672;11.152;2022-11-15T00:59:26;98583.13;;;4.94;90.14
63881;BME280;50046;46.672;11.152;2022-11-15T00:59:37;98577.97;;;4.93;90.36
63881;BME280;50046;46.672;11.152;2022-11-15T00:59:50;98581.47;;;4.93;90.28
63881;BME280;50046;46.672;11.152;2022-11-15T01:00:01;98579.00;;;4.92;90.22
63881;BME280;50046;46.672;11.152;2022-11-15T01:00:12;98579.00;;;4.92;90.22
63881;BME280;50046;46.672;11.152;2022-11-15T01:00:23;98573.66;;;4.92;90.25
63881;BME280;50046;46.672;11.152;2022-11-15T01:00:38;98575.53;;;4.91;90.17
63881;BME280;50046;46.672;11.152;2022-11-15T01:00:49;98578.19;;;4.91;90.25
63881;BME280;50046;46.672;11.152;2022-11-15T01:01:09;98579.22;;;4.90;90.11
63881;BME280;50046;46.672;11.152;2022-11-15T01:01:20;98579.66;;;4.87;90.28
63881;BME280;50046;46.672;11.152;2022-11-15T01:01:34;98579.84;;;4.86;90.12
63881;BME280;50046;46.672;11.152;2022-11-15T01:01:45;98579.84;;;4.86;90.23
63881;BME280;50046;46.672;11.152;2022-11-15T01:01:55;98582.13;;;4.82;90.38
63881;BME280;50046;46.672;11.152;2022-11-15T01:02:06;98579.47;;;4.82;90.19
63881;BME280;50046;46.672;11.152;2022-11-15T01:02:17;98578.84;;;4.80;90.26
63881;BME280;50046;46.672;11.152;2022-11-15T01:02:30;98576.16;;;4.80;90.09
63881;BME280;50046;46.672;11.152;2022-11-15T01:02:41;98581.53;;;4.80;90.57
63881;BME280;50046;46.672;11.152;2022-11-15T01:02:54;98575.78;;;4.76;90.37
63881;BME280;50046;46.672;11.152;2022-11-15T01:03:05;98580.31;;;4.76;90.51
63881;BME280;50046;46.672;11.152;2022-11-15T01:03:16;98582.75;;;4.77;90.60
63881;BME280;50046;46.672;11.152;2022-11-15T01:03:32;98584.63;;;4.77;91.10
63881;BME280;50046;46.672;11.152;2022-11-15T01:03:45;98575.97;;;4.75;90.72
63881;BME280;50046;46.672;11.152;2022-11-15T01:03:56;98578.66;;;4.75;90.81
63881;BME280;50046;46.672;11.152;2022-11-15T01:04:09;98573.94;;;4.77;90.89
63881;BME280;50046;46.672;11.152;2022-11-15T01:04:25;98573.31;;;4.75;90.97
63881;BME280;50046;46.672;11.152;2022-11-15T01:04:38;98578.88;;;4.73;91.29
63881;BME280;50046;46.672;11.152;2022-11-15T01:04:49;98582.81;;;4.71;91.13
63881;BME280;50046;46.672;11.152;2022-11-15T01:05:00;98568.19;;;4.73;91.46
63881;BME280;50046;46.672;11.152;2022-11-15T01:05:10;98574.78;;;4.71;91.44
63881;BME280;50046;46.672;11.152;2022-11-15T01:05:21;98573.13;;;4.70;91.41
63881;BME280;50046;46.672;11.152;2022-11-15T01:05:37;98572.91;;;4.71;91.41